sensor_id;sensor_type;location;lat;lon;timestamp;temperature;humidity
32366;DHT22;18837;46.832;16.838;2023-03-01T00:00:19;5.10;92.70
32366;DHT22;18837;46.832;16.838;2023-03-01T00:02:44;5.10;92.80
32366;DHT22;18837;46.832;16.838;2023-03-01T00:05:10;5.10;92.70
32366;DHT22;18837;46.832;16.838;2023-03-01T00:08:04;5.10;92.80
32366;DHT22;18837;46.832;16.838;2023-03-01T00:10:30;5.10;93.30
32366;DHT22;18837;46.832;16.838;2023-03-01T00:12:55;5.10;92.70
32366;DHT22;18837;46.832;16.838;2023-03-01T00:15:21;5.10;92.80
32366;DHT22;18837;46.832;16.838;2023-03-01T00:17:47;5.10;92.80
32366;DHT22;18837;46.832;16.838;2023-03-01T00:20:13;5.10;92.70
32366;DHT22;18837;46.832;16.838;2023-03-01T00:22:39;5.10;92.70
32366;DHT22;18837;46.832;16.838;2023-03-01T00:25:42;5.10;92.70
32366;DHT22;18837;46.832;16.838;2023-03-01T00:28:59;5.10;93.30
32366;DHT22;18837;46.832;16.838;2023-03-01T00:31:27;5.00;92.80
32366;DHT22;18837;46.832;16.838;2023-03-01T00:34:04;5.10;92.80
32366;DHT22;18837;46.832;16.838;2023-03-01T00:36:35;5.10;92.80
32366;DHT22;18837;46.832;16.838;2023-03-01T00:39:04;5.10;92.80
32366;DHT22;18837;46.832;16.838;2023-03-01T00:41:30;5.10;93.00
32366;DHT22;18837;46.832;16.838;2023-03-01T00:44:08;5.10;92.90
32366;DHT22;18837;46.832;16.838;2023-03-01T00:46:34;5.10;92.80
32366;DHT22;18837;46.832;16.838;2023-03-01T00:48:59;5.00;92.70
32366;DHT22;18837;46.832;16.838;2023-03-01T00:51:28;5.00;92.70
32366;DHT22;18837;46.832;16.838;2023-03-01T00:53:56;5.00;92.80
32366;DHT22;18837;46.832;16.838;2023-03-01T00:56:22;5.00;92.80
32366;DHT22;18837;46.832;16.838;2023-03-01T01:02:19;5.10;93.30
32366;DHT22;18837;46.832;16.838;2023-03-01T01:04:45;5.00;92.80
32366;DHT22;18837;46.832;16.838;2023-03-01T01:07:11;5.10;92.90
32366;DHT22;18837;46.832;16.838;2023-03-01T01:09:37;5.10;92.90
32366;DHT22;18837;46.832;16.838;2023-03-01T01:12:03;5.10;92.70
32366;DHT22;18837;46.832;16.838;2023-03-01T01:14:29;5.00;92.80
32366;DHT22;18837;46.832;16.838;2023-03-01T01:17:10;5.00;92.80
32366;DHT22;18837;46.832;16.838;2023-03-01T01:19:36;5.00;92.90
32366;DHT22;18837;46.832;16.838;2023-03-01T01:22:01;5.00;92.70
32366;DHT22;18837;46.832;16.838;2023-03-01T01:24:28;5.00;92.70
32366;DHT22;18837;46.832;16.838;2023-03-01T01:26:54;5.00;92.70
32366;DHT22;18837;46.832;16.838;2023-03-01T01:29:20;5.00;92.80
32366;DHT22;18837;46.832;16.838;2023-03-01T01:31:46;5.10;92.70
32366;DHT22;18837;46.832;16.838;2023-03-01T01:34:24;5.00;92.80
32366;DHT22;18837;46.832;16.838;2023-03-01T01:37:10;5.00;92.90
32366;DHT22;18837;46.832;16.838;2023-03-01T01:39:35;5.00;93.40
32366;DHT22;18837;46.832;16.838;2023-03-01T01:42:01;5.00;92.80
32366;DHT22;18837;46.832;16.838;2023-03-01T01:44:29;5.00;92.80
32366;DHT22;18837;46.832;16.838;2023-03-01T01:47:00;5.00;92.80
32366;DHT22;18837;46.832;16.838;2023-03-01T01:52:31;5.00;93.20
32366;DHT22;18837;46.832;16.838;2023-03-01T01:55:06;5.00;93.20
32366;DHT22;18837;46.832;16.838;2023-03-01T01:57:40;5.00;93.00
32366;DHT22;18837;46.832;16.838;2023-03-01T02:00:14;5.00;93.30
32366;DHT22;18837;46.832;16.838;2023-03-01T02:02:42;5.00;93.00
32366;DHT22;18837;46.832;16.838;2023-03-01T02:08:20;5.00;93.30
32366;DHT22;18837;46.832;16.838;2023-03-01T02:11:10;5.00;93.40
32366;DHT22;18837;46.832;16.838;2023-03-01T02:13:36;5.00;93.30
32366;DHT22;18837;46.832;16.838;2023-03-01T02:16:05;5.00;92.90
32366;DHT22;18837;46.832;16.838;2023-03-01T02:18:33;5.00;92.90
32366;DHT22;18837;46.832;16.838;2023-03-01T02:23:39;5.00;93.50
32366;DHT22;18837;46.832;16.838;2023-03-01T02:26:42;5.00;92.80
32366;DHT22;18837;46.832;16.838;2023-03-01T02:29:10;5.00;93.40
32366;DHT22;18837;46.832;16.838;2023-03-01T02:31:36;5.00;92.90
32366;DHT22;18837;46.832;16.838;2023-03-01T02:34:21;5.00;93.10
32366;DHT22;18837;46.832;16.838;2023-03-01T02:37:02;5.00;92.80
32366;DHT22;18837;46.832;16.838;2023-03-01T02:39:52;5.00;93.30
32366;DHT22;18837;46.832;16.838;2023-03-01T02:42:54;5.00;93.00
32366;DHT22;18837;46.832;16.838;2023-03-01T02:45:49;5.00;93.40
32366;DHT22;18837;46.832;16.838;2023-03-01T02:48:16;5.00;93.30
32366;DHT22;18837;46.832;16.838;2023-03-01T02:50:59;5.00;92.80
32366;DHT22;18837;46.832;16.838;2023-03-01T02:56:19;5.00;93.40
32366;DHT22;18837;46.832;16.838;2023-03-01T02:58:45;5.00;92.90
32366;DHT22;18837;46.832;16.838;2023-03-01T03:01:26;5.00;93.00
32366;DHT22;18837;46.832;16.838;2023-03-01T03:04:11;5.00;92.90
32366;DHT22;18837;46.832;16.838;2023-03-01T03:06:37;5.00;93.00
32366;DHT22;18837;46.832;16.838;2023-03-01T03:09:04;5.00;92.90
32366;DHT22;18837;46.832;16.838;2023-03-01T03:11:30;4.90;92.90
32366;DHT22;18837;46.832;16.838;2023-03-01T03:13:57;4.90;93.00
32366;DHT22;18837;46.832;16.838;2023-03-01T03:16:32;5.00;93.00
32366;DHT22;18837;46.832;16.838;2023-03-01T03:19:14;4.90;93.00
32366;DHT22;18837;46.832;16.838;2023-03-01T03:21:46;5.00;92.90
32366;DHT22;18837;46.832;16.838;2023-03-01T03:24:12;5.00;93.00
32366;DHT22;18837;46.832;16.838;2023-03-01T03:26:38;5.00;93.10
32366;DHT22;18837;46.832;16.838;2023-03-01T03:29:04;5.00;92.90
32366;DHT22;18837;46.832;16.838;2023-03-01T03:31:29;4.90;93.00
32366;DHT22;18837;46.832;16.838;2023-03-01T03:33:55;5.00;93.00
32366;DHT22;18837;46.832;16.838;2023-03-01T03:36:37;4.90;93.10
32366;DHT22;18837;46.832;16.838;2023-03-01T03:39:03;5.00;93.00
32366;DHT22;18837;46.832;16.838;2023-03-01T03:41:29;4.90;92.80
32366;DHT22;18837;46.832;16.838;2023-03-01T03:43:54;5.00;92.90
32366;DHT22;18837;46.832;16.838;2023-03-01T03:46:20;5.00;92.80
32366;DHT22;18837;46.832;16.838;2023-03-01T03:48:46;5.00;93.20
32366;DHT22;18837;46.832;16.838;2023-03-01T03:51:44;4.90;92.90
32366;DHT22;18837;46.832;16.838;2023-03-01T03:57:20;4.90;93.40
32366;DHT22;18837;46.832;16.838;2023-03-01T03:59:46;5.00;92.90
32366;DHT22;18837;46.832;16.838;2023-03-01T04:02:12;4.90;92.90
32366;DHT22;18837;46.832;16.838;2023-03-01T04:04:37;4.90;92.90
32366;DHT22;18837;46.832;16.838;2023-03-01T04:07:03;4.90;92.90
32366;DHT22;18837;46.832;16.838;2023-03-01T04:09:29;4.90;92.90
32366;DHT22;18837;46.832;16.838;2023-03-01T04:12:07;4.90;93.00
32366;DHT22;18837;46.832;16.838;2023-03-01T04:14:33;4.90;93.00
32366;DHT22;18837;46.832;16.838;2023-03-01T04:16:59;4.90;92.90
32366;DHT22;18837;46.832;16.838;2023-03-01T04:19:24;4.90;92.90
32366;DHT22;18837;46.832;16.838;2023-03-01T04:21:52;4.90;92.90
32366;DHT22;18837;46.832;16.838;2023-03-01T04:24:18;4.90;93.00
32366;DHT22;18837;46.832;16.838;2023-03-01T04:30:07;4.90;93.40
32366;DHT22;18837;46.832;16.838;2023-03-01T04:32:34;4.90;93.20
32366;DHT22;18837;46.832;16.838;2023-03-01T04:35:00;4.90;92.90
32366;DHT22;18837;46.832;16.838;2023-03-01T04:37:26;4.90;92.90
32366;DHT22;18837;46.832;16.838;2023-03-01T04:39:53;4.90;92.90
32366;DHT22;18837;46.832;16.838;2023-03-01T04:42:19;4.90;93.30
32366;DHT22;18837;46.832;16.838;2023-03-01T04:45:05;4.90;92.80
32366;DHT22;18837;46.832;16.838;2023-03-01T04:47:41;4.90;93.60
32366;DHT22;18837;46.832;16.838;2023-03-01T04:50:10;4.90;93.00
32366;DHT22;18837;46.832;16.838;2023-03-01T04:52:36;4.90;93.20
32366;DHT22;18837;46.832;16.838;2023-03-01T04:55:02;4.90;93.10
32366;DHT22;18837;46.832;16.838;2023-03-01T04:57:29;4.90;93.10
32366;DHT22;18837;46.832;16.838;2023-03-01T05:00:26;4.90;93.00
32366;DHT22;18837;46.832;16.838;2023-03-01T05:03:14;4.90;93.80
32366;DHT22;18837;46.832;16.838;2023-03-01T05:05:58;4.90;93.40
32366;DHT22;18837;46.832;16.838;2023-03-01T05:08:25;4.90;92.90
32366;DHT22;18837;46.832;16.838;2023-03-01T05:10:52;4.90;92.90
32366;DHT22;18837;46.832;16.838;2023-03-01T05:13:20;4.90;93.00
32366;DHT22;18837;46.832;16.838;2023-03-01T05:15:54;4.90;93.00
32366;DHT22;18837;46.832;16.838;2023-03-01T05:18:20;4.90;93.00
32366;DHT22;18837;46.832;16.838;2023-03-01T05:20:46;4.90;93.00
32366;DHT22;18837;46.832;16.838;2023-03-01T05:23:13;4.90;93.10
32366;DHT22;18837;46.832;16.838;2023-03-01T05:25:39;4.90;93.30
32366;DHT22;18837;46.832;16.838;2023-03-01T05:28:07;4.90;93.00
32366;DHT22;18837;46.832;16.838;2023-03-01T05:30:35;4.90;93.00
32366;DHT22;18837;46.832;16.838;2023-03-01T05:33:01;4.80;93.00
32366;DHT22;18837;46.832;16.838;2023-03-01T05:35:27;4.90;93.00
32366;DHT22;18837;46.832;16.838;2023-03-01T05:37:54;4.80;92.90
32366;DHT22;18837;46.832;16.838;2023-03-01T05:40:23;4.90;93.10
32366;DHT22;18837;46.832;16.838;2023-03-01T05:42:53;4.90;93.00
32366;DHT22;18837;46.832;16.838;2023-03-01T05:45:20;4.90;93.00
32366;DHT22;18837;46.832;16.838;2023-03-01T05:47:47;4.80;92.90
32366;DHT22;18837;46.832;16.838;2023-03-01T05:50:23;4.90;92.90
32366;DHT22;18837;46.832;16.838;2023-03-01T05:52:57;4.90;93.00
32366;DHT22;18837;46.832;16.838;2023-03-01T05:55:24;4.80;92.90
32366;DHT22;18837;46.832;16.838;2023-03-01T05:57:50;4.80;92.90
32366;DHT22;18837;46.832;16.838;2023-03-01T06:00:18;4.80;93.00
32366;DHT22;18837;46.832;16.838;2023-03-01T06:02:44;4.80;93.10
32366;DHT22;18837;46.832;16.838;2023-03-01T06:05:23;4.80;93.00
32366;DHT22;18837;46.832;16.838;2023-03-01T06:08:17;4.80;93.00
32366;DHT22;18837;46.832;16.838;2023-03-01T06:10:46;4.80;93.20
32366;DHT22;18837;46.832;16.838;2023-03-01T06:13:13;4.80;92.90
32366;DHT22;18837;46.832;16.838;2023-03-01T06:15:38;4.80;92.80
32366;DHT22;18837;46.832;16.838;2023-03-01T06:18:04;4.80;93.20
32366;DHT22;18837;46.832;16.838;2023-03-01T06:20:30;4.80;92.90
32366;DHT22;18837;46.832;16.838;2023-03-01T06:23:08;4.80;92.80
32366;DHT22;18837;46.832;16.838;2023-03-01T06:25:34;4.80;93.00
32366;DHT22;18837;46.832;16.838;2023-03-01T06:27:59;4.80;92.90
32366;DHT22;18837;46.832;16.838;2023-03-01T06:30:26;4.80;92.80
32366;DHT22;18837;46.832;16.838;2023-03-01T06:32:52;4.80;92.80
32366;DHT22;18837;46.832;16.838;2023-03-01T06:35:18;4.80;92.90
32366;DHT22;18837;46.832;16.838;2023-03-01T06:37:45;4.80;92.80
32366;DHT22;18837;46.832;16.838;2023-03-01T06:40:36;4.80;92.80
32366;DHT22;18837;46.832;16.838;2023-03-01T06:43:15;4.80;93.30
32366;DHT22;18837;46.832;16.838;2023-03-01T06:45:40;4.80;93.10
32366;DHT22;18837;46.832;16.838;2023-03-01T06:48:07;4.80;92.80
32366;DHT22;18837;46.832;16.838;2023-03-01T06:50:34;4.80;93.00
32366;DHT22;18837;46.832;16.838;2023-03-01T06:53:00;4.80;92.90
32366;DHT22;18837;46.832;16.838;2023-03-01T06:55:26;4.80;92.90
32366;DHT22;18837;46.832;16.838;2023-03-01T06:58:11;4.80;93.30
32366;DHT22;18837;46.832;16.838;2023-03-01T07:00:37;4.80;93.00
32366;DHT22;18837;46.832;16.838;2023-03-01T07:03:05;4.80;92.80
32366;DHT22;18837;46.832;16.838;2023-03-01T07:05:32;4.80;92.90
32366;DHT22;18837;46.832;16.838;2023-03-01T07:07:58;4.80;93.00
32366;DHT22;18837;46.832;16.838;2023-03-01T07:10:24;4.80;92.90
32366;DHT22;18837;46.832;16.838;2023-03-01T07:12:50;4.80;93.00
32366;DHT22;18837;46.832;16.838;2023-03-01T07:18:39;4.80;93.40
32366;DHT22;18837;46.832;16.838;2023-03-01T07:21:11;4.80;93.00
32366;DHT22;18837;46.832;16.838;2023-03-01T07:23:37;4.80;93.00
32366;DHT22;18837;46.832;16.838;2023-03-01T07:26:03;4.80;93.00
32366;DHT22;18837;46.832;16.838;2023-03-01T07:28:29;4.80;93.10
32366;DHT22;18837;46.832;16.838;2023-03-01T07:31:01;4.80;93.00
32366;DHT22;18837;46.832;16.838;2023-03-01T07:33:45;4.80;93.00
32366;DHT22;18837;46.832;16.838;2023-03-01T07:36:11;4.80;93.10
32366;DHT22;18837;46.832;16.838;2023-03-01T07:38:36;4.80;93.00
32366;DHT22;18837;46.832;16.838;2023-03-01T07:41:03;4.80;93.00
32366;DHT22;18837;46.832;16.838;2023-03-01T07:43:30;4.80;93.00
32366;DHT22;18837;46.832;16.838;2023-03-01T07:45:59;4.80;93.00
32366;DHT22;18837;46.832;16.838;2023-03-01T07:52:13;4.80;93.50
32366;DHT22;18837;46.832;16.838;2023-03-01T07:54:38;4.80;93.40
32366;DHT22;18837;46.832;16.838;2023-03-01T07:57:04;4.80;92.90
32366;DHT22;18837;46.832;16.838;2023-03-01T07:59:30;4.80;93.00
32366;DHT22;18837;46.832;16.838;2023-03-01T08:01:59;4.80;92.90
32366;DHT22;18837;46.832;16.838;2023-03-01T08:04:24;4.80;93.20
32366;DHT22;18837;46.832;16.838;2023-03-01T08:10:09;4.80;93.50
32366;DHT22;18837;46.832;16.838;2023-03-01T08:12:36;4.80;93.30
32366;DHT22;18837;46.832;16.838;2023-03-01T08:15:02;4.80;93.00
32366;DHT22;18837;46.832;16.838;2023-03-01T08:17:27;4.80;93.30
32366;DHT22;18837;46.832;16.838;2023-03-01T08:19:53;4.80;93.10
32366;DHT22;18837;46.832;16.838;2023-03-01T08:22:44;4.80;93.00
32366;DHT22;18837;46.832;16.838;2023-03-01T08:28:35;4.90;93.60
32366;DHT22;18837;46.832;16.838;2023-03-01T08:31:01;4.90;93.20
32366;DHT22;18837;46.832;16.838;2023-03-01T08:33:27;4.90;93.00
32366;DHT22;18837;46.832;16.838;2023-03-01T08:36:01;4.90;93.10
32366;DHT22;18837;46.832;16.838;2023-03-01T08:38:27;4.80;93.00
32366;DHT22;18837;46.832;16.838;2023-03-01T08:40:52;4.90;93.10
32366;DHT22;18837;46.832;16.838;2023-03-01T08:43:37;4.90;93.20
32366;DHT22;18837;46.832;16.838;2023-03-01T08:46:03;4.90;93.20
32366;DHT22;18837;46.832;16.838;2023-03-01T08:48:29;4.90;93.20
32366;DHT22;18837;46.832;16.838;2023-03-01T08:50:55;4.90;93.00
32366;DHT22;18837;46.832;16.838;2023-03-01T08:53:21;5.00;93.20
32366;DHT22;18837;46.832;16.838;2023-03-01T08:55:47;4.90;93.10
32366;DHT22;18837;46.832;16.838;2023-03-01T09:01:41;4.90;93.50
32366;DHT22;18837;46.832;16.838;2023-03-01T09:04:09;4.90;93.80
32366;DHT22;18837;46.832;16.838;2023-03-01T09:06:35;4.90;93.10
32366;DHT22;18837;46.832;16.838;2023-03-01T09:09:04;4.90;93.20
32366;DHT22;18837;46.832;16.838;2023-03-01T09:11:30;4.90;93.30
32366;DHT22;18837;46.832;16.838;2023-03-01T09:13:56;4.90;93.20
32366;DHT22;18837;46.832;16.838;2023-03-01T09:16:37;4.90;93.20
32366;DHT22;18837;46.832;16.838;2023-03-01T09:19:04;4.90;93.30
32366;DHT22;18837;46.832;16.838;2023-03-01T09:21:29;4.90;93.10
32366;DHT22;18837;46.832;16.838;2023-03-01T09:23:57;5.00;93.30
32366;DHT22;18837;46.832;16.838;2023-03-01T09:26:23;4.90;93.20
32366;DHT22;18837;46.832;16.838;2023-03-01T09:28:52;5.00;93.30
32366;DHT22;18837;46.832;16.838;2023-03-01T09:31:43;4.90;93.30
32366;DHT22;18837;46.832;16.838;2023-03-01T09:37:39;4.90;94.00
32366;DHT22;18837;46.832;16.838;2023-03-01T09:40:24;5.00;93.60
32366;DHT22;18837;46.832;16.838;2023-03-01T09:43:01;5.00;92.80
32366;DHT22;18837;46.832;16.838;2023-03-01T09:45:35;5.00;93.30
32366;DHT22;18837;46.832;16.838;2023-03-01T09:48:03;5.00;93.70
32366;DHT22;18837;46.832;16.838;2023-03-01T09:50:53;5.00;93.30
32366;DHT22;18837;46.832;16.838;2023-03-01T09:53:22;5.00;93.80
32366;DHT22;18837;46.832;16.838;2023-03-01T09:55:59;5.00;93.30
32366;DHT22;18837;46.832;16.838;2023-03-01T10:00:56;5.00;93.30
32366;DHT22;18837;46.832;16.838;2023-03-01T10:03:43;5.00;93.30
32366;DHT22;18837;46.832;16.838;2023-03-01T10:06:34;5.00;93.80
32366;DHT22;18837;46.832;16.838;2023-03-01T10:12:37;5.00;94.10
32366;DHT22;18837;46.832;16.838;2023-03-01T10:15:19;5.00;93.70
32366;DHT22;18837;46.832;16.838;2023-03-01T10:21:00;5.00;93.80
32366;DHT22;18837;46.832;16.838;2023-03-01T10:23:28;5.00;93.70
32366;DHT22;18837;46.832;16.838;2023-03-01T10:31:46;5.00;93.60
32366;DHT22;18837;46.832;16.838;2023-03-01T10:34:15;5.00;94.20
32366;DHT22;18837;46.832;16.838;2023-03-01T10:36:43;5.00;93.50
32366;DHT22;18837;46.832;16.838;2023-03-01T10:39:18;5.00;93.60
32366;DHT22;18837;46.832;16.838;2023-03-01T10:42:27;5.00;93.50
32366;DHT22;18837;46.832;16.838;2023-03-01T10:45:51;5.00;94.40
32366;DHT22;18837;46.832;16.838;2023-03-01T10:48:21;5.00;94.30
32366;DHT22;18837;46.832;16.838;2023-03-01T10:56:05;5.00;93.90
32366;DHT22;18837;46.832;16.838;2023-03-01T10:58:33;4.90;93.90
32366;DHT22;18837;46.832;16.838;2023-03-01T11:01:31;5.00;93.50
32366;DHT22;18837;46.832;16.838;2023-03-01T11:06:34;5.00;93.60
32366;DHT22;18837;46.832;16.838;2023-03-01T11:09:21;5.00;93.70
32366;DHT22;18837;46.832;16.838;2023-03-01T11:11:57;5.00;93.60
32366;DHT22;18837;46.832;16.838;2023-03-01T11:14:27;4.90;93.60
32366;DHT22;18837;46.832;16.838;2023-03-01T11:20:40;5.00;94.40
32366;DHT22;18837;46.832;16.838;2023-03-01T11:23:13;5.00;94.30
32366;DHT22;18837;46.832;16.838;2023-03-01T11:25:42;5.00;93.70
32366;DHT22;18837;46.832;16.838;2023-03-01T11:28:14;4.90;93.50
32366;DHT22;18837;46.832;16.838;2023-03-01T11:30:53;5.00;93.60
32366;DHT22;18837;46.832;16.838;2023-03-01T11:38:55;5.00;93.70
32366;DHT22;18837;46.832;16.838;2023-03-01T11:41:26;5.00;93.60
32366;DHT22;18837;46.832;16.838;2023-03-01T11:43:59;5.00;93.60
32366;DHT22;18837;46.832;16.838;2023-03-01T12:01:54;5.10;93.60
32366;DHT22;18837;46.832;16.838;2023-03-01T12:16:40;5.10;94.30
32366;DHT22;18837;46.832;16.838;2023-03-01T12:19:29;5.10;94.10
32366;DHT22;18837;46.832;16.838;2023-03-01T12:34:40;5.10;93.80
32366;DHT22;18837;46.832;16.838;2023-03-01T12:40:10;5.10;93.70
32366;DHT22;18837;46.832;16.838;2023-03-01T12:49:12;5.20;94.50
32366;DHT22;18837;46.832;16.838;2023-03-01T12:51:40;5.10;94.90
32366;DHT22;18837;46.832;16.838;2023-03-01T12:54:15;5.20;94.00
32366;DHT22;18837;46.832;16.838;2023-03-01T12:56:42;5.20;93.90
32366;DHT22;18837;46.832;16.838;2023-03-01T13:06:15;5.20;94.50
32366;DHT22;18837;46.832;16.838;2023-03-01T13:08:55;5.20;93.80
32366;DHT22;18837;46.832;16.838;2023-03-01T13:11:23;5.20;94.00
32366;DHT22;18837;46.832;16.838;2023-03-01T13:13:49;5.20;94.00
32366;DHT22;18837;46.832;16.838;2023-03-01T13:22:30;5.20;94.50
32366;DHT22;18837;46.832;16.838;2023-03-01T13:25:14;5.20;94.50
32366;DHT22;18837;46.832;16.838;2023-03-01T13:27:40;5.30;94.00
32366;DHT22;18837;46.832;16.838;2023-03-01T13:42:55;5.20;94.20
32366;DHT22;18837;46.832;16.838;2023-03-01T13:45:37;5.30;94.00
32366;DHT22;18837;46.832;16.838;2023-03-01T13:48:11;5.30;94.10
32366;DHT22;18837;46.832;16.838;2023-03-01T13:50:51;5.30;94.00
32366;DHT22;18837;46.832;16.838;2023-03-01T13:53:41;5.30;94.10
32366;DHT22;18837;46.832;16.838;2023-03-01T13:56:40;5.30;94.70
32366;DHT22;18837;46.832;16.838;2023-03-01T13:59:13;5.30;94.10
32366;DHT22;18837;46.832;16.838;2023-03-01T14:01:39;5.20;94.30
32366;DHT22;18837;46.832;16.838;2023-03-01T14:04:21;5.30;93.80
32366;DHT22;18837;46.832;16.838;2023-03-01T14:06:47;5.20;93.80
32366;DHT22;18837;46.832;16.838;2023-03-01T14:16:05;5.20;94.50
32366;DHT22;18837;46.832;16.838;2023-03-01T14:18:43;5.20;93.70
32366;DHT22;18837;46.832;16.838;2023-03-01T14:21:14;5.20;93.70
32366;DHT22;18837;46.832;16.838;2023-03-01T14:23:41;5.20;93.70
32366;DHT22;18837;46.832;16.838;2023-03-01T14:26:08;5.20;93.90
32366;DHT22;18837;46.832;16.838;2023-03-01T14:28:54;5.20;93.70
32366;DHT22;18837;46.832;16.838;2023-03-01T14:31:39;5.20;94.50
32366;DHT22;18837;46.832;16.838;2023-03-01T14:34:05;5.20;94.50
32366;DHT22;18837;46.832;16.838;2023-03-01T14:36:33;5.20;93.80
32366;DHT22;18837;46.832;16.838;2023-03-01T14:39:00;5.20;93.80
32366;DHT22;18837;46.832;16.838;2023-03-01T14:41:33;5.20;93.80
32366;DHT22;18837;46.832;16.838;2023-03-01T14:47:53;5.20;94.50
32366;DHT22;18837;46.832;16.838;2023-03-01T14:50:30;5.20;94.50
32366;DHT22;18837;46.832;16.838;2023-03-01T14:53:02;5.20;94.60
32366;DHT22;18837;46.832;16.838;2023-03-01T14:55:38;5.20;93.90
32366;DHT22;18837;46.832;16.838;2023-03-01T14:58:12;5.20;94.50
32366;DHT22;18837;46.832;16.838;2023-03-01T15:00:39;5.20;93.80
32366;DHT22;18837;46.832;16.838;2023-03-01T15:03:42;5.20;93.80
32366;DHT22;18837;46.832;16.838;2023-03-01T15:06:10;5.20;94.50
32366;DHT22;18837;46.832;16.838;2023-03-01T15:08:41;5.20;93.90
32366;DHT22;18837;46.832;16.838;2023-03-01T15:13:50;5.20;94.50
32366;DHT22;18837;46.832;16.838;2023-03-01T15:22:37;5.20;94.70
32366;DHT22;18837;46.832;16.838;2023-03-01T15:25:03;5.20;94.60
32366;DHT22;18837;46.832;16.838;2023-03-01T15:27:28;5.20;94.00
32366;DHT22;18837;46.832;16.838;2023-03-01T15:29:58;5.20;93.90
32366;DHT22;18837;46.832;16.838;2023-03-01T15:32:33;5.20;94.40
32366;DHT22;18837;46.832;16.838;2023-03-01T15:35:31;5.20;94.00
32366;DHT22;18837;46.832;16.838;2023-03-01T15:37:49;5.20;94.00
32366;DHT22;18837;46.832;16.838;2023-03-01T15:42:46;5.20;94.10
32366;DHT22;18837;46.832;16.838;2023-03-01T15:47:54;5.20;94.60
32366;DHT22;18837;46.832;16.838;2023-03-01T15:50:24;5.20;94.00
32366;DHT22;18837;46.832;16.838;2023-03-01T15:56:38;5.20;94.80
32366;DHT22;18837;46.832;16.838;2023-03-01T15:59:03;5.20;94.90
32366;DHT22;18837;46.832;16.838;2023-03-01T16:01:30;5.20;94.20
32366;DHT22;18837;46.832;16.838;2023-03-01T16:03:56;5.20;94.30
32366;DHT22;18837;46.832;16.838;2023-03-01T16:06:23;5.20;94.20
32366;DHT22;18837;46.832;16.838;2023-03-01T16:08:49;5.20;94.10
32366;DHT22;18837;46.832;16.838;2023-03-01T16:11:37;5.20;94.40
32366;DHT22;18837;46.832;16.838;2023-03-01T16:14:04;5.20;95.00
32366;DHT22;18837;46.832;16.838;2023-03-01T16:16:30;5.20;94.30
32366;DHT22;18837;46.832;16.838;2023-03-01T16:18:55;5.20;94.30
32366;DHT22;18837;46.832;16.838;2023-03-01T16:21:25;5.20;94.50
32366;DHT22;18837;46.832;16.838;2023-03-01T16:23:51;5.20;94.60
32366;DHT22;18837;46.832;16.838;2023-03-01T16:26:36;5.20;94.70
32366;DHT22;18837;46.832;16.838;2023-03-01T16:29:21;5.20;94.80
32366;DHT22;18837;46.832;16.838;2023-03-01T16:32:00;5.30;94.90
32366;DHT22;18837;46.832;16.838;2023-03-01T16:34:26;5.30;94.70
32366;DHT22;18837;46.832;16.838;2023-03-01T16:36:52;5.20;94.60
32366;DHT22;18837;46.832;16.838;2023-03-01T16:39:18;5.20;94.60
32366;DHT22;18837;46.832;16.838;2023-03-01T16:41:47;5.30;94.70
32366;DHT22;18837;46.832;16.838;2023-03-01T16:44:12;5.30;94.40
32366;DHT22;18837;46.832;16.838;2023-03-01T16:46:57;5.20;94.20
32366;DHT22;18837;46.832;16.838;2023-03-01T16:49:23;5.20;94.20
32366;DHT22;18837;46.832;16.838;2023-03-01T16:51:48;5.20;94.20
32366;DHT22;18837;46.832;16.838;2023-03-01T16:54:14;5.20;94.10
32366;DHT22;18837;46.832;16.838;2023-03-01T16:56:40;5.20;94.20
32366;DHT22;18837;46.832;16.838;2023-03-01T16:59:07;5.20;94.30
32366;DHT22;18837;46.832;16.838;2023-03-01T17:05:20;5.20;95.10
32366;DHT22;18837;46.832;16.838;2023-03-01T17:07:47;5.20;94.90
32366;DHT22;18837;46.832;16.838;2023-03-01T17:10:13;5.20;94.30
32366;DHT22;18837;46.832;16.838;2023-03-01T17:12:39;5.20;94.30
32366;DHT22;18837;46.832;16.838;2023-03-01T17:15:05;5.20;94.30
32366;DHT22;18837;46.832;16.838;2023-03-01T17:17:31;5.20;94.30
32366;DHT22;18837;46.832;16.838;2023-03-01T17:20:07;5.20;94.50
32366;DHT22;18837;46.832;16.838;2023-03-01T17:22:33;5.20;94.80
32366;DHT22;18837;46.832;16.838;2023-03-01T17:24:59;5.20;94.80
32366;DHT22;18837;46.832;16.838;2023-03-01T17:27:25;5.20;94.50
32366;DHT22;18837;46.832;16.838;2023-03-01T17:29:51;5.20;94.50
32366;DHT22;18837;46.832;16.838;2023-03-01T17:32:17;5.20;94.40
32366;DHT22;18837;46.832;16.838;2023-03-01T17:34:43;5.20;94.40
32366;DHT22;18837;46.832;16.838;2023-03-01T17:37:14;5.20;94.40
32366;DHT22;18837;46.832;16.838;2023-03-01T17:39:52;5.20;94.70
32366;DHT22;18837;46.832;16.838;2023-03-01T17:42:18;5.20;94.30
32366;DHT22;18837;46.832;16.838;2023-03-01T17:44:43;5.20;94.30
32366;DHT22;18837;46.832;16.838;2023-03-01T17:47:09;5.20;94.20
32366;DHT22;18837;46.832;16.838;2023-03-01T17:49:35;5.20;94.30
32366;DHT22;18837;46.832;16.838;2023-03-01T17:52:01;5.20;94.40
32366;DHT22;18837;46.832;16.838;2023-03-01T17:54:42;5.20;94.30
32366;DHT22;18837;46.832;16.838;2023-03-01T17:57:08;5.20;94.50
32366;DHT22;18837;46.832;16.838;2023-03-01T17:59:37;5.20;94.40
32366;DHT22;18837;46.832;16.838;2023-03-01T18:02:03;5.20;94.30
32366;DHT22;18837;46.832;16.838;2023-03-01T18:04:29;5.20;94.50
32366;DHT22;18837;46.832;16.838;2023-03-01T18:06:54;5.20;94.40
32366;DHT22;18837;46.832;16.838;2023-03-01T18:09:20;5.20;94.30
32366;DHT22;18837;46.832;16.838;2023-03-01T18:11:59;5.20;94.30
32366;DHT22;18837;46.832;16.838;2023-03-01T18:14:40;5.20;94.50
32366;DHT22;18837;46.832;16.838;2023-03-01T18:17:05;5.20;94.40
32366;DHT22;18837;46.832;16.838;2023-03-01T18:19:39;5.20;94.50
32366;DHT22;18837;46.832;16.838;2023-03-01T18:22:09;5.10;94.20
32366;DHT22;18837;46.832;16.838;2023-03-01T18:24:36;5.10;94.40
32366;DHT22;18837;46.832;16.838;2023-03-01T18:27:02;5.20;94.40
32366;DHT22;18837;46.832;16.838;2023-03-01T18:29:38;5.20;94.40
32366;DHT22;18837;46.832;16.838;2023-03-01T18:32:04;5.20;94.40
32366;DHT22;18837;46.832;16.838;2023-03-01T18:34:30;5.20;94.30
32366;DHT22;18837;46.832;16.838;2023-03-01T18:36:57;5.10;94.30
32366;DHT22;18837;46.832;16.838;2023-03-01T18:39:23;5.20;94.30
32366;DHT22;18837;46.832;16.838;2023-03-01T18:41:49;5.20;94.30
32366;DHT22;18837;46.832;16.838;2023-03-01T18:44:24;5.20;94.30
32366;DHT22;18837;46.832;16.838;2023-03-01T18:50:13;5.20;95.00
32366;DHT22;18837;46.832;16.838;2023-03-01T18:52:38;5.20;94.30
32366;DHT22;18837;46.832;16.838;2023-03-01T18:55:04;5.20;94.30
32366;DHT22;18837;46.832;16.838;2023-03-01T18:57:30;5.20;94.40
32366;DHT22;18837;46.832;16.838;2023-03-01T18:59:56;5.20;94.30